Time;durP1;ratioP1;P1;durP2;ratioP2;P2;SDS_P1;SDS_P2;PMS_P1;PMS_P2;Temp;Humidity;BMP_temperature;BMP_pressure;BME280_temperature;BME280_humidity;BME280_pressure;Samples;Min_cycle;Max_cycle;Signal;HPM_P1;HPM_P2
2023/01/12 00:01:50;;;;;;;22.42;3.83;;;10.00;99.90;;;;;;5052551;28;20107;-69
2023/01/12 00:04:16;;;;;;;28.90;4.75;;;10.10;99.90;;;;;;5064132;28;20084;-69
2023/01/12 00:06:42;;;;;;;25.67;4.45;;;10.10;99.90;;;;;;5071398;28;20028;-69
2023/01/12 00:09:08;;;;;;;31.08;4.38;;;10.10;99.90;;;;;;5071565;28;20115;-69
2023/01/12 00:11:35;;;;;;;27.75;5.00;;;10.10;99.90;;;;;;5068813;28;20484;-69
2023/01/12 00:14:00;;;;;;;25.67;4.50;;;10.10;99.90;;;;;;5068245;28;20028;-68
2023/01/12 00:16:39;;;;;;;27.00;3.95;;;10.20;99.90;;;;;;5067468;28;20148;-70
2023/01/12 00:19:16;;;;;;;30.65;4.18;;;10.20;99.90;;;;;;5055673;28;20127;-69
2023/01/12 00:24:36;;;;;;;31.03;4.73;;;10.10;99.90;;;;;;5056411;28;20065;-69
2023/01/12 00:27:05;;;;;;;27.85;4.43;;;10.10;99.90;;;;;;5056395;28;20483;-69
2023/01/12 00:29:30;;;;;;;31.50;4.82;;;10.20;99.90;;;;;;5055925;28;20025;-69
2023/01/12 00:31:58;;;;;;;24.60;4.78;;;10.20;99.90;;;;;;5056123;28;20033;-69
2023/01/12 00:34:24;;;;;;;37.45;5.60;;;10.20;99.90;;;;;;5056011;28;20025;-69
2023/01/12 00:36:50;;;;;;;28.67;4.10;;;10.10;99.90;;;;;;5055902;28;20029;-69
2023/01/12 00:39:16;;;;;;;27.15;4.68;;;10.10;99.90;;;;;;5055281;28;20032;-69
2023/01/12 00:47:12;;;;;;;25.83;4.40;;;10.10;99.90;;;;;;5064978;28;20090;-70
2023/01/12 00:49:40;;;;;;;27.50;3.80;;;10.00;99.90;;;;;;5064726;28;20452;-70
2023/01/12 00:52:10;;;;;;;36.67;4.13;;;10.00;99.90;;;;;;5065044;28;20024;-70
2023/01/12 00:54:37;;;;;;;31.00;4.40;;;10.00;99.90;;;;;;5064998;28;20028;-70
2023/01/12 00:57:03;;;;;;;31.30;6.70;;;10.00;99.90;;;;;;5065447;28;20538;-69
2023/01/12 00:59:29;;;;;;;32.45;6.03;;;10.00;99.90;;;;;;5063856;28;20044;-68
2023/01/12 01:01:55;;;;;;;38.65;6.45;;;10.00;99.90;;;;;;5064734;28;20078;-67
2023/01/12 01:04:21;;;;;;;34.42;5.78;;;9.90;99.90;;;;;;5063312;28;20021;-70
2023/01/12 01:06:46;;;;;;;33.38;5.53;;;10.00;99.90;;;;;;5063837;28;20427;-70
2023/01/12 01:09:12;;;;;;;34.35;5.95;;;10.00;99.90;;;;;;5047344;28;20487;-70
2023/01/12 01:11:39;;;;;;;43.53;5.15;;;10.00;99.90;;;;;;5062814;28;20017;-69
2023/01/12 01:14:05;;;;;;;39.17;6.47;;;10.00;99.90;;;;;;5064351;28;20051;-70
2023/01/12 01:16:31;;;;;;;31.73;5.68;;;10.00;99.90;;;;;;5064362;28;20049;-71
2023/01/12 01:18:58;;;;;;;30.63;6.40;;;10.00;99.90;;;;;;5062451;28;20100;-71
2023/01/12 01:21:24;;;;;;;37.00;5.45;;;10.00;99.90;;;;;;5068421;28;20029;-72
2023/01/12 01:23:50;;;;;;;41.40;5.88;;;10.00;99.90;;;;;;5073465;28;20099;-71
2023/01/12 01:26:18;;;;;;;43.45;6.57;;;10.00;99.90;;;;;;5073028;28;20035;-72
2023/01/12 01:28:44;;;;;;;36.03;6.85;;;10.00;99.90;;;;;;5074285;28;20035;-72
2023/01/12 01:31:16;;;;;;;37.05;6.25;;;10.00;99.90;;;;;;5074854;28;20075;-71
2023/01/12 01:33:42;;;;;;;45.47;8.48;;;10.00;99.90;;;;;;5074855;28;20042;-71
2023/01/12 01:36:08;;;;;;;45.63;8.23;;;10.00;99.90;;;;;;5074602;28;20025;-70
2023/01/12 01:38:34;;;;;;;40.38;7.28;;;10.00;99.90;;;;;;5074777;28;20070;-71
2023/01/12 01:41:00;;;;;;;30.75;5.80;;;9.90;99.90;;;;;;5075018;28;20044;-71
2023/01/12 01:43:28;;;;;;;39.30;8.13;;;10.00;99.90;;;;;;5073009;28;20024;-71
2023/01/12 01:46:08;;;;;;;45.85;6.90;;;10.00;99.90;;;;;;5057710;28;20362;-71
2023/01/12 01:48:36;;;;;;;53.08;8.38;;;10.00;99.90;;;;;;5054070;28;20033;-71
2023/01/12 01:51:07;;;;;;;50.78;8.85;;;10.00;99.90;;;;;;5062473;28;20028;-71
2023/01/12 01:53:36;;;;;;;42.90;7.18;;;9.90;99.90;;;;;;5094495;28;20055;-71
2023/01/12 01:56:08;;;;;;;53.30;7.93;;;10.00;99.90;;;;;;5094697;28;20020;-71
2023/01/12 01:58:41;;;;;;;41.80;6.63;;;10.00;99.90;;;;;;5094293;28;20036;-71
2023/01/12 02:01:08;;;;;;;45.47;7.15;;;10.00;99.90;;;;;;5094226;28;20036;-72
2023/01/12 02:03:35;;;;;;;46.05;7.88;;;10.10;99.90;;;;;;5094410;28;20024;-71
2023/01/12 02:06:00;;;;;;;38.08;8.60;;;10.10;99.90;;;;;;5094770;28;20051;-72
2023/01/12 02:08:29;;;;;;;42.95;6.57;;;10.10;99.90;;;;;;5094239;28;20067;-72
2023/01/12 02:10:56;;;;;;;43.50;6.32;;;10.10;99.90;;;;;;5092569;28;20024;-71
2023/01/12 02:16:28;;;;;;;44.70;7.00;;;10.10;99.90;;;;;;5068922;28;20110;-72
2023/01/12 02:18:56;;;;;;;44.78;8.43;;;10.10;99.90;;;;;;5048288;28;20033;-71
2023/01/12 02:21:43;;;;;;;30.10;5.28;;;10.10;99.90;;;;;;5033776;28;20061;-72
2023/01/12 02:24:14;;;;;;;31.10;5.28;;;10.10;99.90;;;;;;5043055;28;20026;-72
2023/01/12 02:27:04;;;;;;;29.95;4.18;;;10.20;99.90;;;;;;5033944;28;20075;-72
2023/01/12 02:29:53;;;;;;;35.30;6.43;;;10.20;99.90;;;;;;5033696;28;20433;-72
2023/01/12 02:32:25;;;;;;;31.15;5.63;;;10.10;99.90;;;;;;5037188;28;20136;-71
2023/01/12 02:35:14;;;;;;;35.08;7.05;;;10.10;99.90;;;;;;5051905;28;20476;-71
2023/01/12 02:38:00;;;;;;;32.35;5.35;;;10.20;99.90;;;;;;5042607;28;20021;-71
2023/01/12 02:40:37;;;;;;;42.20;6.53;;;10.10;99.90;;;;;;5037988;28;20484;-71
2023/01/12 02:43:05;;;;;;;36.47;5.38;;;10.10;99.90;;;;;;5043525;28;20489;-71
2023/01/12 02:45:44;;;;;;;30.90;6.53;;;10.10;99.90;;;;;;5051092;28;20029;-71
2023/01/12 02:48:28;;;;;;;39.95;7.50;;;10.20;99.90;;;;;;5065325;28;20040;-70
2023/01/12 02:51:12;;;;;;;41.08;6.95;;;10.20;99.90;;;;;;5048691;28;20025;-71
2023/01/12 02:54:00;;;;;;;30.20;6.35;;;10.10;99.90;;;;;;5038543;28;20049;-71
2023/01/12 02:56:39;;;;;;;39.67;7.30;;;10.10;99.90;;;;;;5033687;28;20056;-71
2023/01/12 02:59:21;;;;;;;45.80;7.30;;;10.00;99.90;;;;;;5041261;28;20056;-71
2023/01/12 03:01:51;;;;;;;40.83;6.32;;;9.90;99.90;;;;;;5047869;28;20025;-71
2023/01/12 03:04:18;;;;;;;40.92;6.03;;;9.90;99.90;;;;;;5049379;28;20115;-71
2023/01/12 03:07:10;;;;;;;46.47;7.68;;;9.80;99.90;;;;;;5040323;28;20028;-70
2023/01/12 03:09:48;;;;;;;34.97;5.32;;;9.80;99.90;;;;;;5038120;28;20363;-71
2023/01/12 03:12:19;;;;;;;36.60;6.18;;;9.70;99.90;;;;;;5035794;28;20025;-71
2023/01/12 03:14:48;;;;;;;43.28;7.18;;;9.70;99.90;;;;;;5027826;28;20029;-72
2023/01/12 03:17:24;;;;;;;35.15;6.72;;;9.70;99.90;;;;;;5056258;28;20045;-71
2023/01/12 03:19:53;;;;;;;34.40;5.53;;;9.70;99.90;;;;;;5068731;28;20045;-72
2023/01/12 03:22:20;;;;;;;37.35;5.07;;;9.60;99.90;;;;;;5055701;28;20122;-71
2023/01/12 03:24:52;;;;;;;22.00;4.70;;;9.60;99.90;;;;;;5069551;28;20093;-71
2023/01/12 03:27:20;;;;;;;;;;;9.60;99.90;;;;;;5069741;28;20029;-72
2023/01/12 03:29:55;;;;;;;24.75;3.78;;;9.60;99.90;;;;;;5072347;28;20201;-71
2023/01/12 03:32:21;;;;;;;23.90;3.58;;;9.60;99.90;;;;;;5057905;28;20025;-71
2023/01/12 03:34:47;;;;;;;26.63;3.00;;;9.50;99.90;;;;;;5070632;28;20032;-72
2023/01/12 03:37:33;;;;;;;14.18;2.70;;;9.50;99.90;;;;;;5070654;28;20035;-71
2023/01/12 03:40:09;;;;;;;14.52;2.33;;;9.50;99.90;;;;;;5055886;28;20186;-71
2023/01/12 03:42:57;;;;;;;17.88;2.20;;;9.50;99.90;;;;;;5064917;28;20505;-71
2023/01/12 03:45:40;;;;;;;15.25;2.28;;;9.50;99.90;;;;;;5067905;28;20430;-72
2023/01/12 03:48:14;;;;;;;14.63;2.13;;;9.40;99.90;;;;;;5071762;28;20059;-73
2023/01/12 03:50:57;;;;;;;10.77;2.08;;;9.40;99.90;;;;;;5070676;28;20031;-73
2023/01/12 03:53:23;;;;;;;14.20;2.08;;;9.40;99.90;;;;;;5064667;28;20536;-73
2023/01/12 03:56:04;;;;;;;7.63;1.92;;;9.40;99.90;;;;;;5058659;28;20117;-71
2023/01/12 03:58:33;;;;;;;11.93;2.47;;;9.40;99.90;;;;;;5055768;28;20032;-71
2023/01/12 04:00:59;;;;;;;16.92;2.30;;;9.50;99.90;;;;;;5072072;28;20029;-72
2023/01/12 04:03:25;;;;;;;13.48;1.70;;;9.50;99.90;;;;;;5055878;28;20041;-71
2023/01/12 04:05:50;;;;;;;9.00;1.73;;;9.50;99.90;;;;;;5055899;28;20025;-72
2023/01/12 04:08:16;;;;;;;9.35;2.33;;;9.50;99.90;;;;;;5067408;28;20035;-72
2023/01/12 04:10:42;;;;;;;8.57;1.92;;;9.50;99.90;;;;;;5065148;28;20449;-71
2023/01/12 04:13:08;;;;;;;10.05;1.83;;;9.60;99.90;;;;;;5058230;28;20029;-72
2023/01/12 04:15:36;;;;;;;8.70;1.65;;;9.60;99.90;;;;;;5065397;28;20075;-72
2023/01/12 04:18:05;;;;;;;9.30;1.92;;;9.60;99.90;;;;;;5069175;28;20016;-71
2023/01/12 04:20:31;;;;;;;7.47;1.73;;;9.60;99.90;;;;;;5064697;28;20098;-73
2023/01/12 04:22:57;;;;;;;8.32;1.90;;;9.60;99.90;;;;;;5062885;28;20029;-72
2023/01/12 04:25:23;;;;;;;6.15;1.60;;;9.60;99.90;;;;;;5066949;28;20028;-72
2023/01/12 04:27:52;;;;;;;10.30;1.63;;;9.60;99.90;;;;;;5070999;28;20023;-72
2023/01/12 04:30:21;;;;;;;6.30;1.45;;;9.70;99.90;;;;;;5066557;28;20025;-72
2023/01/12 04:32:47;;;;;;;5.03;1.35;;;9.70;99.90;;;;;;5061627;28;20020;-72
2023/01/12 04:35:15;;;;;;;13.75;1.60;;;9.70;99.90;;;;;;5059840;28;20530;-72
2023/01/12 04:37:41;;;;;;;5.22;1.27;;;9.80;99.90;;;;;;5068317;28;20043;-73
2023/01/12 04:40:09;;;;;;;4.18;1.20;;;9.70;99.90;;;;;;5047865;28;20041;-73
2023/01/12 04:45:18;;;;;;;4.03;1.52;;;9.80;99.90;;;;;;5062469;28;20507;-72
2023/01/12 04:47:44;;;;;;;4.53;1.25;;;9.80;99.90;;;;;;5038066;28;20029;-72
2023/01/12 04:50:10;;;;;;;6.50;1.23;;;9.80;99.90;;;;;;5057804;28;20032;-72
2023/01/12 04:52:36;;;;;;;10.90;1.85;;;9.80;99.90;;;;;;5067557;28;20112;-72
2023/01/12 04:55:04;;;;;;;15.10;2.20;;;9.80;99.90;;;;;;5067517;28;20074;-72
2023/01/12 04:57:29;;;;;;;10.30;2.40;;;9.80;99.90;;;;;;5066060;28;20124;-72
2023/01/12 04:59:55;;;;;;;11.48;1.95;;;9.80;99.90;;;;;;5066973;28;20099;-72
2023/01/12 05:02:21;;;;;;;20.58;3.33;;;9.80;99.90;;;;;;5070710;28;20410;-71
2023/01/12 05:04:46;;;;;;;15.93;2.90;;;9.80;99.90;;;;;;5066766;28;20580;-72
2023/01/12 05:07:13;;;;;;;18.58;2.90;;;9.90;99.90;;;;;;5059456;28;20025;-72
2023/01/12 05:12:23;;;;;;;18.60;3.30;;;9.90;99.90;;;;;;5070724;28;20103;-72
2023/01/12 05:14:49;;;;;;;23.60;3.72;;;9.90;99.90;;;;;;5069406;28;20111;-72
2023/01/12 05:17:14;;;;;;;26.27;3.95;;;9.90;99.90;;;;;;5058822;28;20496;-72
2023/01/12 05:19:40;;;;;;;26.88;3.80;;;10.00;99.90;;;;;;5043852;28;20369;-72
2023/01/12 05:22:06;;;;;;;28.48;4.53;;;10.00;99.90;;;;;;5060700;28;20020;-72
2023/01/12 05:24:32;;;;;;;28.17;3.97;;;10.00;99.90;;;;;;5061552;28;20040;-71
2023/01/12 05:26:59;;;;;;;32.35;5.22;;;10.00;99.90;;;;;;5065513;28;20040;-73
2023/01/12 05:29:25;;;;;;;48.42;6.65;;;10.00;99.90;;;;;;5058833;28;20043;-73
2023/01/12 05:31:50;;;;;;;34.22;5.07;;;10.00;99.90;;;;;;5062480;28;20091;-72
2023/01/12 05:34:18;;;;;;;29.55;4.28;;;10.00;99.90;;;;;;5060457;28;20043;-73
2023/01/12 05:36:44;;;;;;;37.03;4.78;;;10.10;99.90;;;;;;5073877;28;20368;-74
2023/01/12 05:39:10;;;;;;;35.63;5.32;;;10.10;99.90;;;;;;5066948;28;20028;-74
2023/01/12 05:41:35;;;;;;;33.83;7.68;;;10.10;99.90;;;;;;5059247;28;20032;-74
2023/01/12 05:44:01;;;;;;;38.80;5.60;;;10.20;99.90;;;;;;5061997;28;20024;-74
2023/01/12 05:46:29;;;;;;;40.67;6.60;;;10.20;99.90;;;;;;5071714;28;20037;-73
2023/01/12 05:48:56;;;;;;;34.13;5.90;;;10.20;99.90;;;;;;5070574;28;20475;-74
2023/01/12 05:51:24;;;;;;;43.33;5.65;;;10.30;99.90;;;;;;5069832;28;20041;-74
2023/01/12 05:53:49;;;;;;;39.03;6.32;;;10.30;99.90;;;;;;5069578;28;20025;-74
2023/01/12 05:56:26;;;;;;;38.50;5.55;;;10.40;99.90;;;;;;5068070;28;20384;-73
2023/01/12 05:58:57;;;;;;;48.38;8.88;;;10.40;99.90;;;;;;5070330;28;20094;-73
2023/01/12 06:01:23;;;;;;;46.85;6.72;;;10.40;99.90;;;;;;5070888;28;20032;-73
2023/01/12 06:03:49;;;;;;;46.22;6.45;;;10.50;99.90;;;;;;5073004;28;20031;-73
2023/01/12 06:06:15;;;;;;;48.92;8.27;;;10.50;99.90;;;;;;5058217;28;20039;-73
2023/01/12 06:08:41;;;;;;;57.17;9.27;;;10.50;99.90;;;;;;5057969;28;20033;-73
2023/01/12 06:13:55;;;;;;;45.80;7.13;;;10.60;99.90;;;;;;5064749;28;20499;-73
2023/01/12 06:13:58;;;;;;;44.33;8.50;;;10.60;99.90;;;;;;5068557;28;20111;-73
2023/01/12 06:16:25;;;;;;;50.40;8.35;;;10.60;99.90;;;;;;5057855;28;20523;-73
2023/01/12 06:18:50;;;;;;;41.60;7.78;;;10.60;99.90;;;;;;5057805;28;20033;-73
2023/01/12 06:21:16;;;;;;;55.22;9.85;;;10.60;99.90;;;;;;5057800;28;20087;-72
2023/01/12 06:23:42;;;;;;;51.13;9.90;;;10.60;99.90;;;;;;5060313;28;20036;-73
2023/01/12 06:26:08;;;;;;;45.50;8.00;;;10.60;99.90;;;;;;5058555;28;20040;-72
2023/01/12 06:28:35;;;;;;;65.68;9.23;;;10.70;99.90;;;;;;5039699;28;20025;-72
2023/01/12 06:31:04;;;;;;;52.25;9.10;;;10.70;99.90;;;;;;5039674;28;20047;-72
2023/01/12 06:33:30;;;;;;;41.47;7.30;;;10.70;99.90;;;;;;5058409;28;20033;-73
2023/01/12 06:35:56;;;;;;;49.03;7.70;;;10.70;99.90;;;;;;5059345;28;20025;-73
2023/01/12 06:38:24;;;;;;;45.22;7.68;;;10.70;99.90;;;;;;5057143;28;20571;-72
2023/01/12 06:40:50;;;;;;;55.38;6.75;;;10.80;99.90;;;;;;5062255;28;20086;-72
2023/01/12 06:43:16;;;;;;;45.53;8.10;;;10.80;99.90;;;;;;5056992;28;20590;-72
2023/01/12 06:45:43;;;;;;;53.95;7.43;;;10.80;99.90;;;;;;5070267;28;20166;-72
2023/01/12 06:48:09;;;;;;;50.25;7.68;;;10.90;99.90;;;;;;5069477;28;20020;-72
2023/01/12 06:50:35;;;;;;;48.28;8.43;;;10.90;99.90;;;;;;5056814;28;20040;-72
2023/01/12 06:53:03;;;;;;;39.60;7.25;;;10.90;99.90;;;;;;5057111;28;20037;-72
2023/01/12 06:55:29;;;;;;;43.50;7.68;;;10.90;99.90;;;;;;5058037;28;20029;-72
2023/01/12 06:57:55;;;;;;;42.28;7.72;;;10.90;99.90;;;;;;5059540;28;20031;-72
2023/01/12 07:00:21;;;;;;;35.88;6.55;;;11.00;99.90;;;;;;5067039;28;20051;-72
2023/01/12 07:02:50;;;;;;;38.97;6.68;;;10.90;99.90;;;;;;5065240;28;20108;-71
2023/01/12 07:05:16;;;;;;;45.55;8.75;;;11.00;99.90;;;;;;5056864;28;20028;-71
2023/01/12 07:07:42;;;;;;;52.83;7.55;;;10.90;99.90;;;;;;5059691;28;20036;-71
2023/01/12 07:10:09;;;;;;;32.08;6.05;;;11.00;99.90;;;;;;5058081;28;20807;-70
2023/01/12 07:12:35;;;;;;;43.50;6.53;;;11.00;99.90;;;;;;5056833;28;20029;-70
2023/01/12 07:15:00;;;;;;;41.67;6.80;;;11.00;99.90;;;;;;5056696;28;20055;-70
2023/01/12 07:17:26;;;;;;;43.03;6.80;;;11.00;99.90;;;;;;5057241;28;20079;-70
2023/01/12 07:19:51;;;;;;;44.58;7.28;;;11.00;99.90;;;;;;5059566;28;20043;-70
2023/01/12 07:22:17;;;;;;;37.03;6.30;;;11.00;99.90;;;;;;5056765;28;20071;-70
2023/01/12 07:24:42;;;;;;;47.05;7.75;;;11.00;99.90;;;;;;5056763;28;20029;-70
2023/01/12 07:27:08;;;;;;;41.15;6.15;;;11.00;99.90;;;;;;5056650;28;20027;-70
2023/01/12 07:29:33;;;;;;;41.55;5.90;;;11.10;99.90;;;;;;5067973;28;20032;-70
2023/01/12 07:32:00;;;;;;;34.58;5.95;;;11.10;99.90;;;;;;5066985;28;20028;-70
2023/01/12 07:34:26;;;;;;;39.17;7.03;;;11.10;99.90;;;;;;5055838;28;20098;-70
2023/01/12 07:36:52;;;;;;;37.85;6.90;;;11.10;99.90;;;;;;5056548;28;20106;-70
2023/01/12 07:39:18;;;;;;;30.67;6.05;;;11.10;99.90;;;;;;5060806;28;20786;-70
2023/01/12 07:44:28;;;;;;;30.60;5.30;;;11.20;99.90;;;;;;5056201;28;20036;-69
2023/01/12 07:46:53;;;;;;;40.10;6.20;;;11.20;99.90;;;;;;5056226;28;20033;-69
2023/01/12 07:49:19;;;;;;;36.83;5.68;;;11.20;99.90;;;;;;5056093;28;20388;-70
2023/01/12 07:51:44;;;;;;;34.47;5.90;;;11.30;99.90;;;;;;5059485;28;20516;-70
2023/01/12 07:54:10;;;;;;;32.70;4.80;;;11.30;99.90;;;;;;5056535;28;20428;-71
2023/01/12 07:56:36;;;;;;;35.90;7.13;;;11.20;99.90;;;;;;5056178;28;20021;-69
2023/01/12 07:59:01;;;;;;;36.67;5.95;;;11.30;99.90;;;;;;5056200;28;20037;-69
2023/01/12 08:01:27;;;;;;;33.75;5.38;;;11.30;99.90;;;;;;5056905;28;20159;-71
2023/01/12 08:03:53;;;;;;;34.17;7.22;;;11.30;99.90;;;;;;5059083;28;20448;-70
2023/01/12 08:06:19;;;;;;;23.45;5.65;;;11.30;99.90;;;;;;5056090;28;20033;-70
2023/01/12 08:08:44;;;;;;;42.05;5.90;;;11.30;99.90;;;;;;5055871;28;20112;-71
2023/01/12 08:11:10;;;;;;;27.20;5.75;;;11.40;99.90;;;;;;5056082;28;20029;-71
2023/01/12 08:13:37;;;;;;;34.60;4.78;;;11.40;99.90;;;;;;5057848;28;20112;-70
2023/01/12 08:16:13;;;;;;;39.67;5.70;;;11.40;99.90;;;;;;5063290;28;20492;-69
2023/01/12 08:18:58;;;;;;;33.05;6.15;;;11.50;99.90;;;;;;5064884;28;20029;-71
2023/01/12 08:21:32;;;;;;;40.75;5.35;;;11.50;99.90;;;;;;5056258;28;20107;-70
2023/01/12 08:24:00;;;;;;;34.67;6.15;;;11.50;99.90;;;;;;5057982;28;20032;-71
2023/01/12 08:26:37;;;;;;;35.50;5.97;;;11.50;99.90;;;;;;5058816;28;20025;-69
2023/01/12 08:29:14;;;;;;;33.15;7.03;;;11.50;99.90;;;;;;5055416;28;20620;-70
2023/01/12 08:31:40;;;;;;;38.75;6.05;;;11.50;99.90;;;;;;5064697;28;20032;-69
2023/01/12 08:34:08;;;;;;;31.50;4.95;;;11.50;99.90;;;;;;5056589;28;20032;-70
2023/01/12 08:36:34;;;;;;;37.33;5.75;;;11.50;99.90;;;;;;5058398;28;20090;-70
2023/01/12 08:39:02;;;;;;;31.85;6.13;;;11.60;99.90;;;;;;5062036;28;20040;-69
2023/01/12 08:41:31;;;;;;;33.97;5.70;;;11.60;99.90;;;;;;5074247;28;20032;-70
2023/01/12 08:44:03;;;;;;;29.42;6.22;;;11.60;99.90;;;;;;5061951;28;20025;-69
2023/01/12 08:46:36;;;;;;;32.20;5.18;;;11.60;99.90;;;;;;5061878;28;20718;-70
2023/01/12 08:49:07;;;;;;;29.75;5.32;;;11.60;99.90;;;;;;5065578;28;20478;-69
2023/01/12 08:51:33;;;;;;;34.08;5.70;;;11.60;99.90;;;;;;5060456;28;20029;-69
2023/01/12 08:54:02;;;;;;;37.38;5.55;;;11.60;99.90;;;;;;5061373;28;20361;-69
2023/01/12 08:56:28;;;;;;;37.58;6.03;;;11.70;99.90;;;;;;5058884;28;20037;-70
2023/01/12 08:58:53;;;;;;;34.35;6.15;;;11.70;99.90;;;;;;5059007;28;20550;-69
2023/01/12 09:01:20;;;;;;;38.25;8.13;;;11.70;99.90;;;;;;5059108;28;20041;-69
2023/01/12 09:03:47;;;;;;;39.63;6.22;;;11.80;99.90;;;;;;5061927;28;20116;-68
2023/01/12 09:06:27;;;;;;;30.55;6.15;;;11.80;99.90;;;;;;5059039;28;20029;-69
2023/01/12 09:08:54;;;;;;;31.60;6.22;;;11.80;99.90;;;;;;5064787;28;20388;-69
2023/01/12 09:11:20;;;;;;;36.85;7.20;;;11.80;99.90;;;;;;5067070;28;20055;-69
2023/01/12 09:13:45;;;;;;;33.75;5.55;;;11.90;99.90;;;;;;5060444;28;20460;-68
2023/01/12 09:16:14;;;;;;;37.30;6.70;;;11.90;99.90;;;;;;5073610;28;20045;-69
2023/01/12 09:18:40;;;;;;;35.70;6.00;;;11.90;99.90;;;;;;5061341;28;20036;-70
2023/01/12 09:21:08;;;;;;;38.92;6.60;;;11.90;99.90;;;;;;5064074;28;20033;-69
2023/01/12 09:23:35;;;;;;;29.45;5.10;;;11.90;99.90;;;;;;5059589;28;20040;-69
2023/01/12 09:26:03;;;;;;;33.22;7.05;;;11.90;99.90;;;;;;5071049;28;20074;-69
2023/01/12 09:28:30;;;;;;;31.23;5.57;;;11.90;99.90;;;;;;5072957;28;20024;-70
2023/01/12 09:31:03;;;;;;;28.08;4.82;;;11.90;99.90;;;;;;5071490;28;20021;-70
2023/01/12 09:33:29;;;;;;;22.05;4.45;;;11.90;99.90;;;;;;5058980;28;20089;-68
2023/01/12 09:36:25;;;;;;;36.08;5.78;;;11.90;99.90;;;;;;5070404;28;20056;-70
2023/01/12 09:38:52;;;;;;;35.10;6.20;;;11.90;99.90;;;;;;5061809;28;20127;-68
2023/01/12 09:47:33;;;;;;;29.13;5.28;;;12.00;99.90;;;;;;5062549;28;20124;-70
2023/01/12 09:50:14;;;;;;;36.97;5.93;;;12.00;99.90;;;;;;5063378;28;20033;-70
2023/01/12 09:52:44;;;;;;;36.53;5.72;;;11.90;99.90;;;;;;5061215;28;20036;-69
2023/01/12 09:55:22;;;;;;;35.92;5.60;;;11.90;99.90;;;;;;5065016;28;20029;-69
2023/01/12 09:57:59;;;;;;;38.42;6.72;;;11.90;99.90;;;;;;5073325;28;20511;-69
2023/01/12 10:00:27;;;;;;;40.05;6.65;;;11.90;99.90;;;;;;5056402;28;20040;-69
2023/01/12 10:03:27;;;;;;;35.72;6.63;;;11.90;99.90;;;;;;5073943;28;20024;-69
2023/01/12 10:05:56;;;;;;;30.38;6.13;;;11.90;99.90;;;;;;5073458;28;20380;-69
2023/01/12 10:08:50;;;;;;;32.58;6.35;;;12.00;99.90;;;;;;5071352;28;20051;-69
2023/01/12 10:11:29;;;;;;;41.83;5.82;;;12.00;99.90;;;;;;5074301;28;20037;-69
2023/01/12 10:14:00;;;;;;;43.40;6.95;;;12.00;99.90;;;;;;5057400;28;20052;-68
2023/01/12 10:16:53;;;;;;;33.53;6.78;;;12.00;99.90;;;;;;5066388;28;20051;-69
2023/01/12 10:19:26;;;;;;;43.45;6.63;;;12.10;99.90;;;;;;5063967;28;20119;-69
2023/01/12 10:21:52;;;;;;;34.72;5.80;;;12.10;99.90;;;;;;5057327;28;20035;-68
2023/01/12 10:24:21;;;;;;;33.75;7.00;;;12.20;99.90;;;;;;5071909;28;20060;-69
2023/01/12 10:26:56;;;;;;;28.50;5.22;;;12.20;99.90;;;;;;5073661;28;20028;-69
2023/01/12 10:29:22;;;;;;;39.33;6.50;;;12.10;99.90;;;;;;5062740;28;20032;-69
2023/01/12 10:31:47;;;;;;;32.78;4.82;;;12.10;99.90;;;;;;5073082;28;20179;-70
2023/01/12 10:34:13;;;;;;;34.22;5.63;;;12.10;99.90;;;;;;5057040;28;20036;-69
2023/01/12 10:36:43;;;;;;;32.33;5.70;;;12.20;99.90;;;;;;5066737;28;20107;-69
2023/01/12 10:39:29;;;;;;;32.78;5.68;;;12.20;99.90;;;;;;5064135;28;20031;-69
2023/01/12 10:43:17;;;;;;;39.95;6.30;;;12.30;99.90;;;;;;5036401;28;20037;-69
2023/01/12 10:45:11;;;;;;;35.13;6.78;;;12.30;99.90;;;;;;5070835;28;20456;-69
2023/01/12 10:47:37;;;;;;;30.27;6.53;;;12.40;99.90;;;;;;5072376;28;20025;-68
2023/01/12 10:50:24;;;;;;;29.08;4.82;;;12.30;99.90;;;;;;5067282;28;20031;-69
2023/01/12 10:53:02;;;;;;;31.27;5.13;;;12.20;99.90;;;;;;5064921;28;20021;-69
2023/01/12 10:55:32;;;;;;;30.67;6.40;;;12.20;99.90;;;;;;5066969;28;20476;-68
2023/01/12 10:57:59;;;;;;;34.22;6.97;;;12.20;99.90;;;;;;5055615;28;20499;-69
2023/01/12 11:00:26;;;;;;;32.90;5.10;;;12.20;99.90;;;;;;5072706;28;20423;-69
2023/01/12 11:02:53;;;;;;;33.63;6.93;;;12.10;99.90;;;;;;5069177;28;20048;-68
2023/01/12 11:05:45;;;;;;;33.28;5.88;;;12.20;99.90;;;;;;5072934;28;20029;-70
2023/01/12 11:08:26;;;;;;;35.67;6.45;;;12.20;99.90;;;;;;5052272;28;20052;-69
2023/01/12 11:10:52;;;;;;;37.10;6.03;;;12.20;99.90;;;;;;5060115;28;20044;-69
2023/01/12 11:13:31;;;;;;;30.73;5.82;;;12.20;99.90;;;;;;5070757;28;20457;-69
2023/01/12 11:16:13;;;;;;;39.60;5.85;;;12.20;99.90;;;;;;5056204;28;20049;-69
2023/01/12 11:19:14;;;;;;;28.45;5.35;;;12.30;99.90;;;;;;5063239;28;20486;-69
2023/01/12 11:21:45;;;;;;;36.22;6.65;;;12.30;99.90;;;;;;5072997;28;20041;-69
2023/01/12 11:24:18;;;;;;;38.85;5.45;;;12.30;99.90;;;;;;5073089;28;20021;-69
2023/01/12 11:26:53;;;;;;;36.83;6.20;;;12.30;99.90;;;;;;5070176;28;20040;-69
2023/01/12 11:29:27;;;;;;;33.38;5.97;;;12.30;99.90;;;;;;5070874;28;20412;-70
2023/01/12 11:32:01;;;;;;;33.28;5.00;;;12.20;99.90;;;;;;5078899;28;20089;-69
2023/01/12 11:34:34;;;;;;;34.47;5.65;;;12.20;99.90;;;;;;5059125;28;20029;-70
2023/01/12 11:37:13;;;;;;;32.03;7.10;;;12.10;99.90;;;;;;5057001;28;20025;-68
2023/01/12 11:39:41;;;;;;;33.13;5.20;;;12.10;99.90;;;;;;5052426;28;20075;-69
2023/01/12 11:45:08;;;;;;;37.53;6.95;;;12.00;99.90;;;;;;5072708;28;20067;-69
2023/01/12 11:47:39;;;;;;;34.83;6.90;;;12.00;99.90;;;;;;5063442;28;20056;-69
2023/01/12 11:50:11;;;;;;;30.42;5.32;;;12.00;99.90;;;;;;5073041;28;20373;-69
2023/01/12 11:52:37;;;;;;;32.88;5.60;;;12.00;99.90;;;;;;5072323;28;20465;-69
2023/01/12 11:55:02;;;;;;;35.78;6.20;;;12.00;99.90;;;;;;5072167;28;20464;-70
2023/01/12 11:57:44;;;;;;;37.45;4.97;;;12.00;99.90;;;;;;5072089;28;20357;-69
2023/01/12 12:00:36;;;;;;;37.35;5.72;;;12.00;99.90;;;;;;5071965;28;20384;-69
2023/01/12 12:03:37;;;;;;;34.63;7.70;;;12.00;99.90;;;;;;5069137;28;20025;-69
2023/01/12 12:06:05;;;;;;;32.80;5.82;;;12.00;99.90;;;;;;5056409;28;20078;-70
2023/01/12 12:09:05;;;;;;;38.33;6.60;;;12.00;99.90;;;;;;5059698;28;20020;-69
2023/01/12 12:11:56;;;;;;;31.90;6.28;;;12.00;99.90;;;;;;5056271;28;20029;-69
2023/01/12 12:15:14;;;;;;;38.87;5.83;;;12.00;99.90;;;;;;5056719;28;20025;-70
2023/01/12 12:18:21;;;;;;;27.08;5.15;;;12.00;99.90;;;;;;4994036;28;20097;-69
2023/01/12 12:21:13;;;;;;;28.65;7.10;;;11.90;99.90;;;;;;5005829;28;20487;-70
2023/01/12 12:23:51;;;;;;;41.20;6.15;;;11.80;99.90;;;;;;5076473;28;20040;-70
2023/01/12 12:26:33;;;;;;;30.13;5.28;;;11.80;99.90;;;;;;5076230;28;20016;-69
2023/01/12 12:29:24;;;;;;;;;;;11.80;99.90;;;;;;5060598;28;20040;-70
2023/01/12 12:32:20;;;;;;;36.20;7.30;;;11.70;99.90;;;;;;5076369;28;20355;-73
2023/01/12 12:35:00;;;;;;;26.48;5.32;;;11.60;99.90;;;;;;5075758;28;20033;-70
2023/01/12 12:37:58;;;;;;;31.45;5.90;;;11.60;99.90;;;;;;5071025;28;20075;-71
2023/01/12 12:46:43;;;;;;;35.22;4.75;;;11.50;99.90;;;;;;5055756;28;20399;-72
2023/01/12 12:49:14;;;;;;;36.13;5.55;;;11.50;99.90;;;;;;5055722;28;20056;-72
2023/01/12 12:51:41;;;;;;;31.52;6.07;;;11.50;99.90;;;;;;5055973;28;20021;-72
2023/01/12 12:54:15;;;;;;;35.83;5.63;;;11.50;99.90;;;;;;5056070;28;20103;-72
2023/01/12 12:56:46;;;;;;;36.63;6.03;;;11.50;99.90;;;;;;5073106;28;20588;-71
2023/01/12 12:59:30;;;;;;;44.55;6.53;;;11.50;99.90;;;;;;5080411;28;20524;-72
2023/01/12 13:02:02;;;;;;;35.33;5.57;;;11.50;99.90;;;;;;5044279;28;20043;-73
2023/01/12 13:04:58;;;;;;;34.53;5.88;;;11.50;99.90;;;;;;5069070;28;20785;-71
2023/01/12 13:07:25;;;;;;;36.33;6.55;;;11.50;99.90;;;;;;5079357;28;20461;-70
2023/01/12 13:10:01;;;;;;;46.90;6.03;;;11.50;99.90;;;;;;5052128;28;20048;-69
2023/01/12 13:12:32;;;;;;;27.92;4.82;;;11.50;99.90;;;;;;5074073;28;20071;-70
2023/01/12 13:15:21;;;;;;;32.55;4.97;;;11.50;99.90;;;;;;5073349;28;20127;-70
2023/01/12 13:17:48;;;;;;;31.55;4.75;;;11.50;99.90;;;;;;5053677;28;20024;-70
2023/01/12 13:20:13;;;;;;;27.98;4.22;;;11.50;99.90;;;;;;5053925;28;20041;-70
2023/01/12 13:22:42;;;;;;;31.13;5.20;;;11.50;99.90;;;;;;5048672;28;20036;-70
2023/01/12 13:25:21;;;;;;;25.95;4.88;;;11.40;99.90;;;;;;5053926;28;20391;-70
2023/01/12 13:28:01;;;;;;;30.05;4.65;;;11.40;99.90;;;;;;5048270;28;20025;-68
2023/01/12 13:30:29;;;;;;;28.55;4.22;;;11.40;99.90;;;;;;5060597;28;20464;-70
2023/01/12 13:33:15;;;;;;;28.73;5.47;;;11.40;99.90;;;;;;5047584;28;20749;-69
2023/01/12 13:35:45;;;;;;;31.25;4.00;;;11.40;99.90;;;;;;5054698;28;20032;-70
2023/01/12 13:38:38;;;;;;;23.02;4.25;;;11.40;99.90;;;;;;5041475;28;20025;-70